createdAt,value
2019-03-17T00:00:29.578Z,19.4
2019-03-17T00:01:19.868Z,19.5
2019-03-17T00:02:10.455Z,19.4
2019-03-17T00:02:59.447Z,19.4
2019-03-17T00:03:50.032Z,19.4
2019-03-17T00:04:40.025Z,19.4
2019-03-17T00:05:30.417Z,19.4
2019-03-17T00:06:20.456Z,19.4
2019-03-17T00:07:10.251Z,19.4
2019-03-17T00:08:00.286Z,19.4
2019-03-17T00:08:50.897Z,19.4
2019-03-17T00:09:39.322Z,19.4
2019-03-17T00:10:31.306Z,19.5
2019-03-17T00:11:21.098Z,19.4
2019-03-17T00:12:10.869Z,19.4
2019-03-17T00:13:01.212Z,19.4
2019-03-17T00:13:51.547Z,19.4
2019-03-17T00:14:40.502Z,19.4
2019-03-17T00:15:31.385Z,19.4
2019-03-17T00:16:21.451Z,19.4
2019-03-17T00:17:10.753Z,19.4
2019-03-17T00:18:01.387Z,19.4
2019-03-17T00:18:50.769Z,19.4
2019-03-17T00:19:42.034Z,19.4
2019-03-17T00:20:31.475Z,19.4
2019-03-17T00:21:21.504Z,19.4
2019-03-17T00:22:12.012Z,19.4
2019-03-17T00:23:01.413Z,19.4
2019-03-17T00:23:52.250Z,19.4
2019-03-17T00:24:41.478Z,19.4
2019-03-17T00:25:31.794Z,19.4
2019-03-17T00:26:22.167Z,19.4
2019-03-17T00:27:12.289Z,19.4
2019-03-17T00:28:01.448Z,19.4
2019-03-17T00:28:52.050Z,19.4
2019-03-17T00:29:41.847Z,19.4
2019-03-17T00:30:32.435Z,19.4
2019-03-17T00:31:29.511Z,19.4
2019-03-17T00:32:11.811Z,19.4
2019-03-17T00:33:02.616Z,19.4
2019-03-17T00:33:52.489Z,19.4
2019-03-17T00:34:52.909Z,19.4
2019-03-17T00:35:32.556Z,19.4
2019-03-17T00:36:22.328Z,19.4
2019-03-17T00:37:13.196Z,19.4
2019-03-17T00:38:03.108Z,19.4
2019-03-17T00:38:51.932Z,19.4
2019-03-17T00:39:43.108Z,19.4
2019-03-17T00:40:32.696Z,19.4
2019-03-17T00:41:22.660Z,19.4
2019-03-17T00:42:13.346Z,19.4
2019-03-17T00:43:02.521Z,19.4
2019-03-17T00:43:53.710Z,19.4
2019-03-17T00:44:43.163Z,19.4
2019-03-17T00:45:32.700Z,19.4
2019-03-17T00:46:23.350Z,19.4
2019-03-17T00:47:15.858Z,19.4
2019-03-17T00:48:03.177Z,19.4
2019-03-17T00:48:53.737Z,19.4
2019-03-17T00:49:44.322Z,19.4
2019-03-17T00:50:34.183Z,19.4
2019-03-17T00:51:23.180Z,19.4
2019-03-17T00:52:12.777Z,19.4
2019-03-17T00:53:03.019Z,19.4
2019-03-17T00:53:53.640Z,19.4
2019-03-17T00:54:43.434Z,19.4
2019-03-17T00:55:33.199Z,19.4
2019-03-17T00:56:23.279Z,19.4
2019-03-17T00:57:13.387Z,19.4
2019-03-17T00:58:05.184Z,19.4
2019-03-17T00:58:53.905Z,19.4
2019-03-17T00:59:44.561Z,19.4
2019-03-17T01:00:34.055Z,19.4
2019-03-17T01:01:23.559Z,19.4
2019-03-17T01:02:14.229Z,19.4
2019-03-17T01:03:04.533Z,19.4
2019-03-17T01:03:54.829Z,19.4
2019-03-17T01:04:56.914Z,19.4
2019-03-17T01:05:36.121Z,19.4
2019-03-17T01:06:25.042Z,19.4
2019-03-17T01:07:14.594Z,19.4
2019-03-17T01:08:04.901Z,19.4
2019-03-17T01:08:54.359Z,19.4
2019-03-17T01:09:45.251Z,19.4
2019-03-17T01:10:35.099Z,19.4
2019-03-17T01:11:24.004Z,19.4
2019-03-17T01:12:15.212Z,19.4
2019-03-17T01:13:04.949Z,19.4
2019-03-17T01:13:54.721Z,19.4
2019-03-17T01:14:45.338Z,19.4
2019-03-17T01:15:35.661Z,19.4
2019-03-17T01:16:25.821Z,19.4
2019-03-17T01:17:15.543Z,19.4
2019-03-17T01:18:05.626Z,19.4
2019-03-17T01:18:55.678Z,19.4
2019-03-17T01:19:45.982Z,19.4
2019-03-17T01:20:35.471Z,19.4
2019-03-17T01:21:26.358Z,19.4
2019-03-17T01:22:15.852Z,19.4
2019-03-17T01:23:05.452Z,19.4
2019-03-17T01:23:55.743Z,19.4
2019-03-17T01:24:46.617Z,19.4
2019-03-17T01:25:35.887Z,19.4
2019-03-17T01:26:25.392Z,19.4
2019-03-17T01:27:16.294Z,19.4
2019-03-17T01:28:06.128Z,19.4
2019-03-17T01:28:55.921Z,19.4
2019-03-17T01:29:45.352Z,19.4
2019-03-17T01:30:36.444Z,19.4
2019-03-17T01:31:26.540Z,19.4
2019-03-17T01:32:16.374Z,19.4
2019-03-17T01:33:06.375Z,19.4
2019-03-17T01:33:56.445Z,19.4
2019-03-17T01:34:47.033Z,19.4
2019-03-17T01:35:37.493Z,19.4
2019-03-17T01:36:26.328Z,19.4
2019-03-17T01:37:16.639Z,19.4
2019-03-17T01:38:06.782Z,19.4
2019-03-17T01:38:57.110Z,19.4
2019-03-17T01:39:46.468Z,19.4
2019-03-17T01:40:36.722Z,19.4
2019-03-17T01:41:26.007Z,19.4
2019-03-17T01:42:19.537Z,19.4
2019-03-17T01:43:06.535Z,19.4
2019-03-17T01:43:56.994Z,19.4
2019-03-17T01:44:47.274Z,19.4
2019-03-17T01:45:37.331Z,19.4
2019-03-17T01:46:28.015Z,19.4
2019-03-17T01:47:17.973Z,19.4
2019-03-17T01:48:07.999Z,19.4
2019-03-17T01:48:57.762Z,19.4
2019-03-17T01:49:47.551Z,19.4
2019-03-17T01:50:37.894Z,19.4
2019-03-17T01:51:27.976Z,19.4
2019-03-17T01:52:18.310Z,19.4
2019-03-17T01:53:08.420Z,19.4
2019-03-17T01:53:57.854Z,19.4
2019-03-17T01:54:48.196Z,19.4
2019-03-17T01:55:38.246Z,19.4
2019-03-17T01:56:27.761Z,19.4
2019-03-17T01:57:18.376Z,19.4
2019-03-17T01:58:08.698Z,19.4
2019-03-17T01:58:57.926Z,19.4
2019-03-17T01:59:48.341Z,19.4
2019-03-17T02:00:38.386Z,19.4
2019-03-17T02:01:28.723Z,19.4
2019-03-17T02:02:18.727Z,19.4
2019-03-17T02:03:08.272Z,19.4
2019-03-17T02:03:58.842Z,19.4
2019-03-17T02:04:48.628Z,19.4
2019-03-17T02:05:39.226Z,19.4
2019-03-17T02:06:28.505Z,19.4
2019-03-17T02:07:19.070Z,19.4
2019-03-17T02:08:09.118Z,19.4
2019-03-17T02:08:57.813Z,19.4
2019-03-17T02:09:49.323Z,19.4
2019-03-17T02:10:38.600Z,19.4
2019-03-17T02:11:29.098Z,19.4
2019-03-17T02:12:20.001Z,19.4
2019-03-17T02:13:09.276Z,19.4
2019-03-17T02:13:59.282Z,19.4
2019-03-17T02:14:49.375Z,19.4
2019-03-17T02:15:38.830Z,19.4
2019-03-17T02:16:29.765Z,19.4
2019-03-17T02:17:19.801Z,19.4
2019-03-17T02:18:09.856Z,19.4
2019-03-17T02:18:59.908Z,19.4
2019-03-17T02:19:49.984Z,19.4
2019-03-17T02:20:40.030Z,19.4
2019-03-17T02:21:30.642Z,19.4
2019-03-17T02:22:22.695Z,19.4
2019-03-17T02:23:09.444Z,19.4
2019-03-17T02:24:00.267Z,19.4
2019-03-17T02:24:50.052Z,19.4
2019-03-17T02:25:40.372Z,19.4
2019-03-17T02:26:30.729Z,19.4
2019-03-17T02:27:20.878Z,19.4
2019-03-17T02:28:11.187Z,19.4
2019-03-17T02:29:00.621Z,19.4
2019-03-17T02:29:50.969Z,19.4
2019-03-17T02:30:40.948Z,19.4
2019-03-17T02:31:31.140Z,19.4
2019-03-17T02:32:20.946Z,19.4
2019-03-17T02:33:10.430Z,19.4
2019-03-17T02:34:01.085Z,19.4
2019-03-17T02:34:50.835Z,19.4
2019-03-17T02:35:45.315Z,19.4
2019-03-17T02:36:31.150Z,19.4
2019-03-17T02:37:20.825Z,19.4
2019-03-17T02:38:11.627Z,19.4
2019-03-17T02:39:01.166Z,19.4
2019-03-17T02:39:51.512Z,19.4
2019-03-17T02:40:41.578Z,19.4
2019-03-17T02:41:31.304Z,19.4
2019-03-17T02:42:21.494Z,19.4
2019-03-17T02:43:11.516Z,19.4
2019-03-17T02:44:01.968Z,19.4
2019-03-17T02:44:51.129Z,19.4
2019-03-17T02:45:41.683Z,19.4
2019-03-17T02:46:31.734Z,19.4
2019-03-17T02:47:21.796Z,19.4
2019-03-17T02:48:11.310Z,19.4
2019-03-17T02:49:02.384Z,19.4
2019-03-17T02:49:52.464Z,19.4
2019-03-17T02:50:42.512Z,19.4
2019-03-17T02:51:32.309Z,19.4
2019-03-17T02:52:21.820Z,19.4
2019-03-17T02:53:12.108Z,19.4
2019-03-17T02:54:02.764Z,19.4
2019-03-17T02:54:53.069Z,19.4
2019-03-17T02:55:42.396Z,19.4
2019-03-17T02:56:32.926Z,19.4
2019-03-17T02:57:23.088Z,19.4
2019-03-17T02:58:12.822Z,19.4
2019-03-17T02:59:02.833Z,19.4
2019-03-17T02:59:52.605Z,19.4
2019-03-17T03:00:43.241Z,19.4
2019-03-17T03:01:33.279Z,19.4
2019-03-17T03:02:22.829Z,19.4
2019-03-17T03:03:13.439Z,19.4
2019-03-17T03:04:03.511Z,19.4
2019-03-17T03:07:34.699Z,19.4
2019-03-17T03:08:24.911Z,19.4
2019-03-17T03:09:14.926Z,19.4
2019-03-17T03:10:05.592Z,19.4
2019-03-17T03:10:55.154Z,19.4
2019-03-17T03:11:44.957Z,19.4
2019-03-17T03:12:35.466Z,19.4
2019-03-17T03:13:24.697Z,19.4
2019-03-17T03:14:15.008Z,19.4
2019-03-17T03:15:05.718Z,19.4
2019-03-17T03:15:55.582Z,19.4
2019-03-17T03:16:45.189Z,19.4
2019-03-17T03:17:35.540Z,19.4
2019-03-17T03:18:24.505Z,19.4
2019-03-17T03:19:15.612Z,19.4
2019-03-17T03:20:05.750Z,19.4
2019-03-17T03:20:55.852Z,19.4
2019-03-17T03:21:45.792Z,19.4
2019-03-17T03:22:36.283Z,19.4
2019-03-17T03:23:25.928Z,19.4
2019-03-17T03:24:16.326Z,19.4
2019-03-17T03:25:06.324Z,19.4
2019-03-17T03:25:56.164Z,19.4
2019-03-17T03:26:45.863Z,19.4
2019-03-17T03:27:36.094Z,19.4
2019-03-17T03:28:26.612Z,19.4
2019-03-17T03:29:16.622Z,19.4
2019-03-17T03:30:05.944Z,19.4
2019-03-17T03:30:56.497Z,19.4
2019-03-17T03:31:46.546Z,19.4
2019-03-17T03:32:36.992Z,19.4
2019-03-17T03:33:27.308Z,19.4
2019-03-17T03:34:17.085Z,19.4
2019-03-17T03:35:07.103Z,19.4
2019-03-17T03:36:14.829Z,19.4
2019-03-17T03:36:46.568Z,19.4
2019-03-17T03:37:37.246Z,19.4
2019-03-17T03:38:27.006Z,19.4
2019-03-17T03:39:17.099Z,19.4
2019-03-17T03:40:07.295Z,19.4
2019-03-17T03:40:56.931Z,19.4
2019-03-17T03:41:47.216Z,19.4
2019-03-17T03:42:37.303Z,19.4
2019-03-17T03:43:27.644Z,19.4
2019-03-17T03:44:17.433Z,19.4
2019-03-17T03:45:07.189Z,19.4
2019-03-17T03:45:56.680Z,19.4
2019-03-17T03:46:47.626Z,19.4
2019-03-17T03:47:37.843Z,19.4
2019-03-17T03:48:27.411Z,19.4
2019-03-17T03:49:17.522Z,19.4
2019-03-17T03:50:07.823Z,19.4
2019-03-17T03:50:57.931Z,19.4
2019-03-17T03:51:47.473Z,19.4
2019-03-17T03:52:37.452Z,19.4
2019-03-17T03:53:28.316Z,19.4
2019-03-17T03:54:18.435Z,19.4
2019-03-17T03:55:08.454Z,19.4
2019-03-17T03:55:57.975Z,19.4
2019-03-17T03:56:48.312Z,19.4
2019-03-17T03:57:38.449Z,19.4
2019-03-17T03:58:28.698Z,19.4
2019-03-17T03:59:17.953Z,19.4
2019-03-17T04:00:08.552Z,19.4
2019-03-17T04:00:58.385Z,19.4
2019-03-17T04:01:48.652Z,19.4
2019-03-17T04:02:39.067Z,19.4
2019-03-17T04:03:28.542Z,19.4
2019-03-17T04:04:17.985Z,19.4
2019-03-17T04:05:09.285Z,19.4
2019-03-17T04:05:58.656Z,19.4
2019-03-17T04:06:48.750Z,19.4
2019-03-17T04:07:39.182Z,19.4
2019-03-17T04:08:28.908Z,19.4
2019-03-17T04:09:19.433Z,19.4
2019-03-17T04:10:09.247Z,19.4
2019-03-17T04:10:59.297Z,19.4
2019-03-17T04:11:49.330Z,19.4
2019-03-17T04:12:39.204Z,19.4
2019-03-17T04:13:28.882Z,19.4
2019-03-17T04:14:19.564Z,19.4
2019-03-17T04:15:09.703Z,19.4
2019-03-17T04:15:59.653Z,19.4
2019-03-17T04:16:48.949Z,19.4
2019-03-17T04:17:39.749Z,19.4
2019-03-17T04:18:29.895Z,19.4
2019-03-17T04:19:19.892Z,19.4
2019-03-17T04:20:09.689Z,19.4
2019-03-17T04:21:00.329Z,19.4
2019-03-17T04:21:49.547Z,19.4
2019-03-17T04:22:39.883Z,19.4
2019-03-17T04:23:30.206Z,19.4
2019-03-17T04:24:20.558Z,19.4
2019-03-17T04:25:25.379Z,19.4
2019-03-17T04:26:00.630Z,19.4
2019-03-17T04:26:50.398Z,19.4
2019-03-17T04:27:40.235Z,19.4
2019-03-17T04:28:30.854Z,19.4
2019-03-17T04:29:20.020Z,19.4
2019-03-17T04:30:10.201Z,19.4
2019-03-17T04:31:01.048Z,19.4
2019-03-17T04:31:50.518Z,19.4
2019-03-17T04:32:41.086Z,19.4
2019-03-17T04:33:30.615Z,19.4
2019-03-17T04:34:20.656Z,19.4
2019-03-17T04:35:11.127Z,19.4
2019-03-17T04:36:01.335Z,19.4
2019-03-17T04:36:51.131Z,19.4
2019-03-17T04:37:40.686Z,19.4
2019-03-17T04:38:31.504Z,19.4
2019-03-17T04:39:21.086Z,19.4
2019-03-17T04:40:11.514Z,19.4
2019-03-17T04:41:01.082Z,19.4
2019-03-17T04:41:51.410Z,19.4
2019-03-17T04:42:41.185Z,19.4
2019-03-17T04:43:31.262Z,19.4
2019-03-17T04:44:26.990Z,19.4
2019-03-17T04:45:11.422Z,19.4
2019-03-17T04:46:01.494Z,19.4
2019-03-17T04:46:51.489Z,19.4
2019-03-17T04:47:42.113Z,19.4
2019-03-17T04:48:31.314Z,19.4
2019-03-17T04:49:22.238Z,19.4
2019-03-17T04:50:12.037Z,19.4
2019-03-17T04:51:01.799Z,19.4
2019-03-17T04:51:52.199Z,19.4
2019-03-17T04:52:42.199Z,19.4
2019-03-17T04:53:31.697Z,19.4
2019-03-17T04:54:22.591Z,19.4
2019-03-17T04:55:11.877Z,19.4
2019-03-17T04:56:02.440Z,19.4
2019-03-17T04:56:52.209Z,19.4
2019-03-17T04:57:42.334Z,19.4
2019-03-17T04:58:32.649Z,19.4
2019-03-17T04:59:23.036Z,19.4
2019-03-17T05:00:12.249Z,19.4
2019-03-17T05:01:02.531Z,19.4
2019-03-17T05:01:53.161Z,19.4
2019-03-17T05:02:43.184Z,19.4
2019-03-17T05:03:33.243Z,19.4
2019-03-17T05:04:22.547Z,19.4
2019-03-17T05:05:13.126Z,19.4
2019-03-17T05:06:03.163Z,19.4
2019-03-17T05:06:58.115Z,19.4
2019-03-17T05:07:43.025Z,19.4
2019-03-17T05:08:33.573Z,19.4
2019-03-17T05:09:23.358Z,19.4
2019-03-17T05:10:13.738Z,19.4
2019-03-17T05:11:03.032Z,19.4
2019-03-17T05:11:53.833Z,19.4
2019-03-17T05:12:43.613Z,19.4
2019-03-17T05:13:33.400Z,19.4
2019-03-17T05:14:23.513Z,19.4
2019-03-17T05:15:13.855Z,19.4
2019-03-17T05:16:03.556Z,19.4
2019-03-17T05:16:53.683Z,19.4
2019-03-17T05:17:43.665Z,19.4
2019-03-17T05:18:34.019Z,19.4
2019-03-17T05:19:24.070Z,19.4
2019-03-17T05:20:14.157Z,19.4
2019-03-17T05:21:03.984Z,19.4
2019-03-17T05:21:54.035Z,19.4
2019-03-17T05:22:44.056Z,19.4
2019-03-17T05:23:34.659Z,19.4
2019-03-17T05:24:24.472Z,19.4
2019-03-17T05:25:14.552Z,19.4
2019-03-17T05:26:04.835Z,19.4
2019-03-17T05:26:54.334Z,19.4
2019-03-17T05:27:44.739Z,19.4
2019-03-17T05:28:34.470Z,19.4
2019-03-17T05:29:25.080Z,19.4
2019-03-17T05:30:14.957Z,19.4
2019-03-17T05:31:04.074Z,19.4
2019-03-17T05:31:54.975Z,19.4
2019-03-17T05:32:45.066Z,19.4
2019-03-17T05:33:35.367Z,19.4
2019-03-17T05:34:25.172Z,19.4
2019-03-17T05:35:15.210Z,19.4
2019-03-17T05:36:05.027Z,19.4
2019-03-17T05:37:10.129Z,19.4
2019-03-17T05:37:45.129Z,19.4
2019-03-17T05:38:35.756Z,19.4
2019-03-17T05:39:25.276Z,19.4
2019-03-17T05:40:15.329Z,19.4
2019-03-17T05:41:05.611Z,19.4
2019-03-17T05:41:55.643Z,19.4
2019-03-17T05:42:46.713Z,19.4
2019-03-17T05:43:35.791Z,19.4
2019-03-17T05:44:26.181Z,19.4
2019-03-17T05:45:16.184Z,19.4
2019-03-17T05:46:05.741Z,19.4
2019-03-17T05:46:55.766Z,19.4
2019-03-17T05:47:46.108Z,19.4
2019-03-17T05:48:36.153Z,19.4
2019-03-17T05:49:25.653Z,19.4
2019-03-17T05:50:16.544Z,19.4
2019-03-17T05:51:06.333Z,19.4
2019-03-17T05:51:56.676Z,19.4
2019-03-17T05:52:46.148Z,19.4
2019-03-17T05:53:36.496Z,19.4
2019-03-17T05:54:26.908Z,19.4
2019-03-17T05:55:16.906Z,19.4
2019-03-17T05:56:06.712Z,19.4
2019-03-17T05:56:56.537Z,19.4
2019-03-17T05:57:46.852Z,19.5
2019-03-17T05:58:36.913Z,19.4
2019-03-17T05:59:26.956Z,19.4
2019-03-17T06:00:17.006Z,19.4
2019-03-17T06:01:06.488Z,19.4
2019-03-17T06:01:56.540Z,18.9
2019-03-17T06:02:46.855Z,21.3
2019-03-17T06:03:36.382Z,21.1
2019-03-17T06:05:34.396Z,25
2019-03-17T06:06:24.355Z,25.9
2019-03-17T06:07:24.247Z,26
2019-03-17T06:08:04.785Z,25.4
2019-03-17T06:08:55.097Z,24.4
2019-03-17T06:09:44.044Z,23.6
2019-03-17T06:10:34.084Z,23.2
2019-03-17T06:11:24.707Z,23.1
2019-03-17T06:12:14.477Z,23
2019-03-17T06:13:05.402Z,23
2019-03-17T06:13:56.944Z,23
2019-03-17T06:14:45.297Z,23
2019-03-17T06:15:35.282Z,22.9
2019-03-17T06:16:24.507Z,22.9
2019-03-17T06:17:15.399Z,22.9
2019-03-17T06:18:05.242Z,22.9
2019-03-17T06:18:55.236Z,22.1
2019-03-17T06:19:45.579Z,23.4
2019-03-17T06:20:35.632Z,23.9
2019-03-17T06:21:25.997Z,25.8
2019-03-17T06:22:15.232Z,27.3
2019-03-17T06:23:05.913Z,28
2019-03-17T06:23:55.030Z,28.2
2019-03-17T06:24:45.449Z,28.1
2019-03-17T06:26:26.049Z,27.6
2019-03-17T06:27:15.857Z,27.6
2019-03-17T06:28:06.166Z,27.8
2019-03-17T06:28:56.031Z,28.1
2019-03-17T06:29:46.018Z,28.3
2019-03-17T06:30:36.114Z,28.6
2019-03-17T06:31:26.691Z,28.8
2019-03-17T06:32:16.183Z,29
2019-03-17T06:33:06.238Z,29.1
2019-03-17T06:33:56.845Z,29.2
2019-03-17T06:34:46.358Z,29.3
2019-03-17T06:35:36.412Z,29.4
2019-03-17T06:36:27.036Z,29.6
2019-03-17T06:37:16.244Z,29.8
2019-03-17T06:38:06.605Z,30
2019-03-17T06:38:56.645Z,30.1
2019-03-17T06:39:46.428Z,30.3
2019-03-17T06:40:36.498Z,30.4
2019-03-17T06:41:26.841Z,30.6
2019-03-17T06:42:17.165Z,30.8
2019-03-17T06:43:06.983Z,30.9
2019-03-17T06:43:57.287Z,31.1
2019-03-17T06:44:47.095Z,31.3
2019-03-17T06:45:37.127Z,31.4
2019-03-17T06:46:26.895Z,31.6
2019-03-17T06:47:17.308Z,31.8
2019-03-17T06:48:07.305Z,31.9
2019-03-17T06:48:57.925Z,32.1
2019-03-17T06:49:47.712Z,32.3
2019-03-17T06:50:36.915Z,32.4
2019-03-17T06:51:27.857Z,32.6
2019-03-17T06:52:17.592Z,32.8
2019-03-17T06:53:07.948Z,32.9
2019-03-17T06:54:02.250Z,33.1
2019-03-17T06:54:47.793Z,33.3
2019-03-17T06:55:38.110Z,33.4
2019-03-17T06:56:27.894Z,33.5
2019-03-17T06:57:17.679Z,33.4
2019-03-17T06:58:07.185Z,33.3
2019-03-17T06:58:57.847Z,33.2
2019-03-17T06:59:48.152Z,33.2
2019-03-17T07:00:38.182Z,33.3
2019-03-17T07:01:28.547Z,33.4
2019-03-17T07:02:18.857Z,33.6
2019-03-17T07:03:08.652Z,33.8
2019-03-17T07:05:34.524Z,34
2019-03-17T07:06:24.021Z,34.2
2019-03-17T07:07:14.067Z,34.4
2019-03-17T07:08:04.931Z,34.5
2019-03-17T07:08:55.021Z,34.8
2019-03-17T07:09:44.536Z,34.9
2019-03-17T07:10:34.324Z,35.1
2019-03-17T07:11:24.446Z,35.2
2019-03-17T07:12:14.249Z,35.4
2019-03-17T07:13:05.344Z,35.6
2019-03-17T07:13:55.149Z,35.8
2019-03-17T07:14:45.457Z,35.9
2019-03-17T07:15:35.241Z,36.1
2019-03-17T07:16:25.053Z,36.3
2019-03-17T07:17:14.508Z,36.4
2019-03-17T07:18:04.658Z,36.5
2019-03-17T07:18:55.198Z,36.7
2019-03-17T07:19:45.001Z,36.9
2019-03-17T07:20:35.626Z,37.1
2019-03-17T07:21:25.363Z,37.3
2019-03-17T07:22:15.756Z,37.4
2019-03-17T07:23:05.759Z,37.6
2019-03-17T07:23:55.841Z,37.8
2019-03-17T07:24:45.078Z,38
2019-03-17T07:25:35.400Z,38.1
2019-03-17T07:26:26.013Z,38.3
2019-03-17T07:27:15.065Z,38.4
2019-03-17T07:28:05.858Z,38.6
2019-03-17T07:28:56.198Z,38.8
2019-03-17T07:29:46.258Z,39
2019-03-17T07:30:36.029Z,39.2
2019-03-17T07:31:26.395Z,39.4
2019-03-17T07:32:16.418Z,39.6
2019-03-17T07:33:06.243Z,39.7
2019-03-17T07:33:56.842Z,39.9
2019-03-17T07:34:46.347Z,40
2019-03-17T07:35:36.669Z,40.1
2019-03-17T07:36:26.718Z,40.3
2019-03-17T07:37:16.777Z,40.5
2019-03-17T07:38:06.832Z,40.7
2019-03-17T07:38:56.071Z,40.8
2019-03-17T07:39:46.395Z,41.1
2019-03-17T07:40:36.820Z,41.1
2019-03-17T07:41:27.555Z,41.3
2019-03-17T07:42:17.135Z,41.4
2019-03-17T07:43:07.446Z,41.6
2019-03-17T07:44:11.663Z,41.8
2019-03-17T07:44:47.386Z,42.1
2019-03-17T07:45:37.409Z,42.2
2019-03-17T07:46:42.182Z,42.4
2019-03-17T07:47:17.029Z,42.6
2019-03-17T07:48:07.569Z,42.8
2019-03-17T07:48:57.684Z,42.9
2019-03-17T07:49:47.954Z,43.1
2019-03-17T07:50:37.020Z,43.3
2019-03-17T07:51:27.812Z,43.4
2019-03-17T07:52:17.682Z,43.6
2019-03-17T07:53:07.359Z,43.8
2019-03-17T07:53:57.692Z,43.9
2019-03-17T07:54:47.501Z,44.1
2019-03-17T07:55:37.889Z,44.3
2019-03-17T07:56:28.441Z,44.4
2019-03-17T07:57:17.652Z,44.6
2019-03-17T07:58:07.979Z,44.8
2019-03-17T07:58:58.107Z,44.9
2019-03-17T07:59:48.381Z,45.1
2019-03-17T08:00:37.884Z,45.3
2019-03-17T08:01:28.789Z,45.4
2019-03-17T08:02:17.834Z,45.6
2019-03-17T08:03:08.458Z,45.7
2019-03-17T08:03:58.971Z,45.8
2019-03-17T08:04:52.104Z,46
2019-03-17T08:05:38.551Z,46.2
2019-03-17T08:06:28.906Z,46.3
2019-03-17T08:07:21.326Z,46.4
2019-03-17T08:08:15.163Z,46.6
2019-03-17T08:08:59.346Z,46.8
2019-03-17T08:09:49.668Z,46.9
2019-03-17T08:10:38.994Z,47.1
2019-03-17T08:11:29.565Z,47.3
2019-03-17T08:12:18.988Z,47.4
2019-03-17T08:13:09.351Z,47.5
2019-03-17T08:13:58.851Z,47.4
2019-03-17T08:14:49.461Z,47.3
2019-03-17T08:15:39.373Z,47.4
2019-03-17T08:16:29.035Z,47.4
2019-03-17T08:17:19.631Z,47.6
2019-03-17T08:18:09.413Z,47.8
2019-03-17T08:18:59.785Z,47.9
2019-03-17T08:19:49.620Z,48.1
2019-03-17T08:20:39.585Z,48.3
2019-03-17T08:21:29.919Z,48.4
2019-03-17T08:22:20.023Z,48.5
2019-03-17T08:23:09.796Z,48.6
2019-03-17T10:06:33.357Z,56.3
2019-03-17T10:07:23.702Z,56.1
2019-03-17T10:08:14.511Z,56
2019-03-17T10:09:04.926Z,55.8
2019-03-17T10:09:54.599Z,55.7
2019-03-17T10:10:44.440Z,55.6
2019-03-17T10:11:33.999Z,55.5
2019-03-17T10:12:24.588Z,55.4
2019-03-17T10:13:15.201Z,55.4
2019-03-17T10:14:04.631Z,55.4
2019-03-17T10:14:55.274Z,55.4
2019-03-17T10:15:44.468Z,55.3
2019-03-17T10:16:34.843Z,55.1
2019-03-17T10:17:24.991Z,54.6
2019-03-17T10:18:14.996Z,54.2
2019-03-17T10:19:05.020Z,53.8
2019-03-17T10:19:54.571Z,53.4
2019-03-17T10:20:43.358Z,53.2
2019-03-17T10:21:35.541Z,53.1
2019-03-17T10:22:25.793Z,52.9
2019-03-17T10:23:15.011Z,52.7
2019-03-17T10:24:05.401Z,52.5
2019-03-17T10:24:55.671Z,52.3
2019-03-17T10:25:46.078Z,52.2
2019-03-17T10:26:35.238Z,52.1
2019-03-17T10:27:25.903Z,52
2019-03-17T10:29:19.831Z,51.9
2019-03-17T10:29:56.298Z,51.8
2019-03-17T10:30:46.100Z,51.8
2019-03-17T10:31:36.438Z,51.5
2019-03-17T10:32:26.218Z,51.6
2019-03-17T10:33:16.283Z,51.9
2019-03-17T10:34:06.387Z,52.3
2019-03-17T10:34:55.722Z,52.6
2019-03-17T10:35:46.468Z,52.7
2019-03-17T10:36:36.530Z,52.8
2019-03-17T10:37:26.325Z,52.6
2019-03-17T10:38:16.922Z,52.5
2019-03-17T10:39:17.733Z,52.4
2019-03-17T10:39:57.028Z,52.5
2019-03-17T10:40:46.380Z,52.5
2019-03-17T10:41:35.842Z,52.6
2019-03-17T10:42:26.733Z,52.8
2019-03-17T10:43:17.040Z,53.3
2019-03-17T10:44:07.074Z,53.5
2019-03-17T10:44:56.289Z,53.9
2019-03-17T10:45:47.175Z,54.1
2019-03-17T10:46:36.702Z,54.2
2019-03-17T10:47:27.354Z,54.3
2019-03-17T10:48:16.804Z,54
2019-03-17T10:49:06.926Z,53.6
2019-03-17T10:49:57.750Z,53.1
2019-03-17T10:50:55.627Z,52.9
2019-03-17T10:51:37.874Z,53
2019-03-17T10:52:27.782Z,53.2
2019-03-17T10:53:17.710Z,53.6
2019-03-17T10:54:07.794Z,54
2019-03-17T10:54:57.322Z,54.3
2019-03-17T10:55:47.345Z,54.6
2019-03-17T10:56:37.407Z,54.7
2019-03-17T10:57:27.752Z,54.8
2019-03-17T10:58:18.104Z,54.9
2019-03-17T10:59:07.861Z,55.1
2019-03-17T10:59:57.465Z,55.3
2019-03-17T11:00:47.426Z,55.5
2019-03-17T11:01:37.487Z,55.8
2019-03-17T11:02:28.672Z,55.9
2019-03-17T11:03:17.871Z,56.1
2019-03-17T11:04:08.546Z,56.4
2019-03-17T11:04:57.798Z,56.6
2019-03-17T11:05:48.078Z,56.8
2019-03-17T11:06:38.136Z,57
2019-03-17T11:07:28.198Z,57.1
2019-03-17T11:08:17.981Z,57.3
2019-03-17T11:09:08.873Z,57.4
2019-03-17T11:09:58.375Z,57.5
2019-03-17T11:10:48.449Z,57.5
2019-03-17T11:11:39.036Z,57.5
2019-03-17T11:12:29.137Z,57.6
2019-03-17T11:13:18.901Z,57.7
2019-03-17T11:14:09.105Z,57.8
2019-03-17T11:14:58.711Z,58.1
2019-03-17T11:15:49.603Z,58.1
2019-03-17T11:16:39.128Z,58.1
2019-03-17T11:17:29.729Z,58.1
2019-03-17T11:18:19.407Z,57.9
2019-03-17T11:19:09.568Z,57.9
2019-03-17T11:21:39.195Z,57.6
2019-03-17T11:22:28.412Z,57.5
2019-03-17T11:23:19.891Z,57.5
2019-03-17T11:24:09.408Z,57.4
2019-03-17T11:24:59.565Z,57.4
2019-03-17T11:25:49.500Z,57.4
2019-03-17T11:26:39.636Z,57.3
2019-03-17T11:27:30.200Z,57.2
2019-03-17T11:28:20.612Z,57.1
2019-03-17T11:29:10.374Z,57.2
2019-03-17T11:30:00.335Z,57.4
2019-03-17T11:30:50.215Z,57.5
2019-03-17T11:31:39.930Z,57.6
2019-03-17T11:32:30.517Z,57.5
2019-03-17T11:33:20.305Z,57.4
2019-03-17T11:34:10.425Z,57.3
2019-03-17T11:35:00.429Z,57.3
2019-03-17T11:35:51.057Z,57.3
2019-03-17T11:36:40.364Z,57.6
2019-03-17T11:37:30.707Z,57.9
2019-03-17T11:38:20.752Z,58.1
2019-03-17T11:39:10.816Z,58.4
2019-03-17T11:40:00.054Z,58.4
2019-03-17T11:40:50.874Z,58.4
2019-03-17T11:41:40.634Z,58.3
2019-03-17T11:42:31.327Z,58
2019-03-17T11:43:21.341Z,57.4
2019-03-17T11:44:11.482Z,56.9
2019-03-17T11:45:01.186Z,56.7
2019-03-17T11:45:51.526Z,56.7
2019-03-17T11:46:41.001Z,56.7
2019-03-17T11:47:30.866Z,56.3
2019-03-17T11:48:21.956Z,55.5
2019-03-17T11:49:11.461Z,54.4
2019-03-17T11:50:01.361Z,53.6
2019-03-17T11:50:51.506Z,53.2
2019-03-17T11:51:42.250Z,53.1
2019-03-17T11:52:31.401Z,53
2019-03-17T11:53:21.769Z,53
2019-03-17T11:54:12.158Z,53.2
2019-03-17T11:55:01.977Z,53.1
2019-03-17T11:55:52.264Z,53.1
2019-03-17T11:56:41.183Z,53.3
2019-03-17T11:57:31.795Z,53.5
2019-03-17T11:58:22.668Z,53.7
2019-03-17T11:59:13.018Z,53.9
2019-03-17T12:00:02.838Z,54.3
2019-03-17T12:00:51.495Z,54.5
2019-03-17T12:01:41.810Z,54.7
2019-03-17T12:02:32.255Z,54.9
2019-03-17T12:03:22.190Z,55.1
2019-03-17T12:04:12.250Z,55.4
2019-03-17T12:06:34.016Z,55.9
2019-03-17T12:07:23.850Z,56.2
2019-03-17T12:08:14.494Z,56.4
2019-03-17T12:09:07.371Z,56.6
2019-03-17T12:09:55.786Z,56.8
2019-03-17T12:10:44.593Z,56.9
2019-03-17T12:11:34.418Z,57.1
2019-03-17T12:12:39.598Z,57.3
2019-03-17T12:13:14.201Z,57.5
2019-03-17T12:14:04.881Z,57.6
2019-03-17T12:15:44.681Z,57.9
2019-03-17T12:16:34.336Z,58.1
2019-03-17T12:17:24.738Z,58.2
2019-03-17T12:18:14.870Z,58.3
2019-03-17T12:19:05.181Z,58.4
2019-03-17T12:20:45.292Z,58.6
2019-03-17T12:21:35.140Z,58.8
2019-03-17T12:22:25.125Z,58.9
2019-03-17T12:23:14.099Z,59.1
2019-03-17T12:24:05.291Z,59.1
2019-03-17T12:24:55.601Z,59.3
2019-03-17T12:25:45.380Z,59.3
2019-03-17T12:26:35.937Z,59.4
2019-03-17T12:27:25.778Z,59.5
2019-03-17T12:28:15.810Z,59.6
2019-03-17T12:29:05.627Z,59.7
2019-03-17T12:29:55.685Z,59.8
2019-03-17T12:30:45.457Z,59.8
2019-03-17T12:31:35.913Z,59.8
2019-03-17T12:32:25.622Z,59.9
2019-03-17T12:33:16.301Z,60
2019-03-17T12:34:06.469Z,60
2019-03-17T12:34:56.305Z,60.1
2019-03-17T12:35:46.693Z,60.1
2019-03-17T12:36:36.185Z,60.3
2019-03-17T12:37:25.982Z,60.3
2019-03-17T12:38:16.032Z,60.3
2019-03-17T12:39:06.907Z,60.4
2019-03-17T12:40:08.492Z,60.4
2019-03-17T12:40:46.247Z,60.5
2019-03-17T12:41:39.215Z,60.5
2019-03-17T12:42:26.343Z,60.5
2019-03-17T12:43:16.645Z,60.6
2019-03-17T12:44:07.037Z,60.6
2019-03-17T12:44:56.224Z,60.6
2019-03-17T12:45:46.826Z,60.7
2019-03-17T12:46:37.149Z,60.8
2019-03-17T12:47:26.649Z,60.8
2019-03-17T12:48:17.282Z,60.8
2019-03-17T12:49:06.794Z,60.9
2019-03-17T12:49:57.136Z,60.9
2019-03-17T12:50:47.206Z,60.9
2019-03-17T12:51:37.236Z,61
2019-03-17T12:52:27.024Z,61
2019-03-17T12:53:17.114Z,61.1
2019-03-17T12:54:06.976Z,61.1
2019-03-17T12:54:57.749Z,61.1
2019-03-17T12:55:47.571Z,61.2
2019-03-17T12:56:37.646Z,61.2
2019-03-17T12:57:27.389Z,61.3
2019-03-17T12:58:20.563Z,61.3
2019-03-17T12:59:07.543Z,61.3
2019-03-17T12:59:57.936Z,61.4
2019-03-17T13:00:47.356Z,61.4
2019-03-17T13:01:37.151Z,61.4
2019-03-17T13:02:27.503Z,61.4